Terminal Aerodrome Forecast
Issued by NWS Topeka, KS

Home | Current Version | Previous Version | Text Only | Print | Product List | Glossary Off
Versions: 1 2 3 4 5 6 7 8 9 10 11 12 13 14 15 16 17 18 19 20

000
FTUS43 KTOP 020500
TAFTOP
TAF
KTOP 020520Z 0206/0306 16005KT P6SM SCT150 WS020/18030KT
     FM021000 16005KT P6SM SCT012
     FM021600 18013KT P6SM SCT012=

USA.gov is the U.S. government's official web portal to all federal, state and local government web resources and services.